Time;durP1;ratioP1;P1;durP2;ratioP2;P2;SDS_P1;SDS_P2;PMS_P1;PMS_P2;Temp;Humidity;BMP_temperature;BMP_pressure;BME280_temperature;BME280_humidity;BME280_pressure;Samples;Min_cycle;Max_cycle;Signal;HPM_P1;HPM_P2
2021/10/16 00:02:09;;;;;;;5.03;3.50;;;;;;;;;;5106509;28;20127;-59
2021/10/16 00:04:35;;;;;;;5.20;3.57;;;;;;;;;;5107212;28;20474;-60
2021/10/16 00:07:02;;;;;;;6.67;3.37;;;;;;;;;;5109892;28;20028;-60
2021/10/16 00:09:29;;;;;;;4.17;2.93;;;;;;;;;;5112390;28;20015;-61
2021/10/16 00:11:56;;;;;;;6.27;4.17;;;;;;;;;;5111780;28;20466;-60
2021/10/16 00:14:23;;;;;;;9.27;4.23;;;;;;;;;;5112055;28;20161;-59
2021/10/16 00:16:49;;;;;;;12.93;4.63;;;;;;;;;;5111474;28;20051;-59
2021/10/16 00:19:16;;;;;;;7.20;4.50;;;;;;;;;;5108652;28;20378;-59
2021/10/16 00:21:43;;;;;;;12.87;4.90;;;;;;;;;;5106198;28;20028;-59
2021/10/16 00:24:10;;;;;;;9.23;5.27;;;;;;;;;;5115575;28;20033;-60
2021/10/16 00:26:37;;;;;;;6.87;4.97;;;;;;;;;;5127137;28;20019;-60
2021/10/16 00:29:03;;;;;;;8.03;5.63;;;;;;;;;;5109139;28;20016;-61
2021/10/16 00:31:30;;;;;;;8.27;5.17;;;;;;;;;;5111671;28;20028;-61
2021/10/16 00:33:57;;;;;;;7.23;4.97;;;;;;;;;;5111340;28;20028;-59
2021/10/16 00:36:24;;;;;;;9.60;5.57;;;;;;;;;;5111952;28;20028;-59
2021/10/16 00:38:50;;;;;;;11.03;5.80;;;;;;;;;;5112249;28;20077;-59
2021/10/16 00:41:17;;;;;;;8.50;5.67;;;;;;;;;;5108868;28;20063;-59
2021/10/16 00:43:44;;;;;;;6.37;4.63;;;;;;;;;;5106434;28;20106;-59
2021/10/16 00:46:11;;;;;;;7.13;5.70;;;;;;;;;;5107558;28;20035;-59
2021/10/16 00:48:38;;;;;;;7.77;5.43;;;;;;;;;;5110910;28;20050;-59
2021/10/16 00:51:05;;;;;;;6.70;4.90;;;;;;;;;;5111709;28;20031;-59
2021/10/16 00:53:32;;;;;;;12.13;5.67;;;;;;;;;;5115384;28;20016;-59
2021/10/16 00:55:58;;;;;;;8.47;5.90;;;;;;;;;;5115672;28;20034;-59
2021/10/16 00:58:27;;;;;;;9.33;6.10;;;;;;;;;;5115132;28;20055;-59
2021/10/16 01:00:54;;;;;;;8.60;5.70;;;;;;;;;;5115526;28;20089;-59
2021/10/16 01:03:21;;;;;;;10.83;5.50;;;;;;;;;;5114042;28;20020;-59
2021/10/16 01:05:48;;;;;;;13.40;6.60;;;;;;;;;;5110247;28;20035;-59
2021/10/16 01:08:15;;;;;;;10.83;5.63;;;;;;;;;;5109758;28;20167;-59
2021/10/16 01:10:42;;;;;;;20.03;7.30;;;;;;;;;;5110026;28;20028;-59
2021/10/16 01:13:09;;;;;;;12.53;6.10;;;;;;;;;;5111206;28;20072;-59
2021/10/16 01:15:35;;;;;;;11.10;5.37;;;;;;;;;;5115601;28;20088;-59
2021/10/16 01:18:02;;;;;;;10.93;6.00;;;;;;;;;;5115595;28;20020;-58
2021/10/16 01:20:30;;;;;;;11.13;6.00;;;;;;;;;;5115341;28;20462;-59
2021/10/16 01:22:59;;;;;;;7.93;5.47;;;;;;;;;;5114692;28;20026;-59
2021/10/16 01:25:25;;;;;;;10.17;5.10;;;;;;;;;;5133707;27;20023;-59
2021/10/16 01:27:53;;;;;;;11.93;5.83;;;;;;;;;;5123518;27;20393;-59
2021/10/16 01:30:21;;;;;;;8.23;5.50;;;;;;;;;;5109611;28;20027;-59
2021/10/16 01:32:47;;;;;;;8.87;5.23;;;;;;;;;;5109279;28;20028;-59
2021/10/16 01:35:15;;;;;;;6.67;4.77;;;;;;;;;;5110306;28;20033;-58
2021/10/16 01:37:43;;;;;;;8.33;5.50;;;;;;;;;;5114126;28;20023;-58
2021/10/16 01:40:11;;;;;;;11.17;5.33;;;;;;;;;;5113955;28;20059;-59
2021/10/16 01:42:42;;;;;;;6.90;4.50;;;;;;;;;;5113486;28;20038;-59
2021/10/16 01:45:18;;;;;;;8.63;5.00;;;;;;;;;;5114444;28;20474;-58
2021/10/16 01:47:52;;;;;;;6.57;4.60;;;;;;;;;;5113210;28;20032;-59
2021/10/16 01:50:19;;;;;;;7.33;4.70;;;;;;;;;;5108752;28;20416;-59
2021/10/16 01:52:46;;;;;;;6.20;4.17;;;;;;;;;;5109144;28;20517;-59
2021/10/16 01:55:13;;;;;;;6.40;4.30;;;;;;;;;;5109734;28;20027;-60
2021/10/16 01:57:39;;;;;;;9.47;5.73;;;;;;;;;;5110318;28;20031;-59
2021/10/16 02:00:08;;;;;;;6.80;4.60;;;;;;;;;;5114474;28;20034;-59
2021/10/16 02:02:36;;;;;;;6.83;4.10;;;;;;;;;;5114275;28;20092;-59
2021/10/16 02:05:03;;;;;;;7.67;4.67;;;;;;;;;;5114541;28;20036;-59
2021/10/16 02:07:30;;;;;;;12.33;4.93;;;;;;;;;;5113854;28;20016;-59
2021/10/16 02:09:56;;;;;;;9.90;5.07;;;;;;;;;;5112830;28;20091;-59
2021/10/16 02:12:23;;;;;;;9.60;4.43;;;;;;;;;;5108632;28;20032;-58
2021/10/16 02:14:50;;;;;;;10.27;4.37;;;;;;;;;;5109103;28;20054;-59
2021/10/16 02:17:17;;;;;;;7.67;4.70;;;;;;;;;;5109027;28;20035;-59
2021/10/16 02:19:43;;;;;;;6.90;3.80;;;;;;;;;;5109104;28;20043;-59
2021/10/16 02:22:10;;;;;;;8.53;4.67;;;;;;;;;;5113911;28;20381;-59
2021/10/16 02:24:37;;;;;;;7.93;3.63;;;;;;;;;;5126616;27;20026;-59
2021/10/16 02:27:04;;;;;;;7.03;3.93;;;;;;;;;;5119371;27;20801;-58
2021/10/16 02:29:31;;;;;;;5.23;3.37;;;;;;;;;;5113772;28;20469;-59
2021/10/16 02:31:57;;;;;;;6.17;3.30;;;;;;;;;;5113133;28;20470;-59
2021/10/16 02:34:24;;;;;;;4.10;2.53;;;;;;;;;;5108350;28;20861;-59
2021/10/16 02:36:51;;;;;;;6.13;3.00;;;;;;;;;;5108638;28;20032;-59
2021/10/16 02:39:18;;;;;;;4.53;3.00;;;;;;;;;;5108125;28;20047;-59
2021/10/16 02:41:44;;;;;;;5.67;3.50;;;;;;;;;;5107817;28;20498;-59
2021/10/16 02:44:11;;;;;;;6.70;3.70;;;;;;;;;;5113393;28;20098;-58
2021/10/16 02:46:38;;;;;;;8.47;4.20;;;;;;;;;;5113814;28;20378;-58
2021/10/16 02:49:05;;;;;;;10.17;4.27;;;;;;;;;;5113004;28;20525;-59
2021/10/16 02:51:31;;;;;;;8.30;4.10;;;;;;;;;;5113221;28;20019;-58
2021/10/16 02:53:58;;;;;;;5.77;3.73;;;;;;;;;;5112996;28;20069;-58
2021/10/16 02:56:25;;;;;;;8.53;4.50;;;;;;;;;;5107798;28;20027;-58
2021/10/16 02:58:52;;;;;;;6.57;4.43;;;;;;;;;;5108042;28;20104;-59
2021/10/16 03:01:18;;;;;;;7.00;4.07;;;;;;;;;;5107944;28;20031;-59
2021/10/16 03:03:45;;;;;;;6.17;3.87;;;;;;;;;;5107488;28;20028;-59
2021/10/16 03:06:12;;;;;;;6.20;3.90;;;;;;;;;;5112433;28;20019;-58
2021/10/16 03:08:39;;;;;;;7.97;4.27;;;;;;;;;;5112561;28;20030;-58
2021/10/16 03:11:05;;;;;;;6.53;4.73;;;;;;;;;;5112355;28;20019;-58
2021/10/16 03:13:34;;;;;;;6.93;5.23;;;;;;;;;;5111928;28;20027;-58
2021/10/16 03:16:01;;;;;;;6.90;4.60;;;;;;;;;;5112798;28;20027;-58
2021/10/16 03:18:28;;;;;;;6.73;4.00;;;;;;;;;;5107986;28;20054;-59
2021/10/16 03:20:55;;;;;;;5.37;3.50;;;;;;;;;;5107738;28;20078;-58
2021/10/16 03:23:22;;;;;;;8.13;4.03;;;;;;;;;;5109244;27;20526;-58
2021/10/16 03:25:49;;;;;;;6.13;3.90;;;;;;;;;;5127154;27;20042;-58
2021/10/16 03:28:15;;;;;;;5.93;3.33;;;;;;;;;;5111118;28;20366;-58
2021/10/16 03:30:42;;;;;;;5.90;3.63;;;;;;;;;;5112160;28;20515;-59
2021/10/16 03:33:09;;;;;;;8.13;4.93;;;;;;;;;;5111981;28;20035;-58
2021/10/16 03:35:36;;;;;;;5.63;3.53;;;;;;;;;;5112833;28;20038;-59
2021/10/16 03:38:03;;;;;;;6.13;3.40;;;;;;;;;;5112678;28;20027;-58
2021/10/16 03:40:30;;;;;;;6.03;3.63;;;;;;;;;;5108124;28;20031;-59
2021/10/16 03:42:57;;;;;;;7.03;3.60;;;;;;;;;;5106945;28;20020;-58
2021/10/16 03:45:24;;;;;;;5.40;3.50;;;;;;;;;;5106658;28;20034;-59
2021/10/16 03:47:51;;;;;;;7.73;4.20;;;;;;;;;;5107586;28;20047;-59
2021/10/16 03:50:17;;;;;;;7.07;3.40;;;;;;;;;;5110135;28;20024;-58
2021/10/16 03:52:44;;;;;;;8.40;3.77;;;;;;;;;;5112479;28;20032;-58
2021/10/16 03:55:12;;;;;;;7.23;4.03;;;;;;;;;;5112414;28;20482;-58
2021/10/16 03:57:38;;;;;;;8.00;3.63;;;;;;;;;;5112193;28;20030;-58
2021/10/16 04:00:12;;;;;;;6.43;3.73;;;;;;;;;;5111460;28;20039;-59
2021/10/16 04:02:40;;;;;;;7.20;3.57;;;;;;;;;;5106237;28;20032;-58
2021/10/16 04:05:07;;;;;;;6.87;4.37;;;;;;;;;;5105742;28;20065;-58
2021/10/16 04:07:34;;;;;;;9.20;4.63;;;;;;;;;;5105374;28;20355;-59
2021/10/16 04:10:01;;;;;;;7.87;3.80;;;;;;;;;;5106873;28;20374;-58
2021/10/16 04:12:28;;;;;;;8.20;3.97;;;;;;;;;;5108773;28;20622;-58
2021/10/16 04:14:54;;;;;;;5.60;3.57;;;;;;;;;;5110925;28;20412;-59
2021/10/16 04:17:21;;;;;;;6.20;3.20;;;;;;;;;;5111534;28;20385;-58
2021/10/16 04:19:48;;;;;;;6.03;3.93;;;;;;;;;;5111696;28;20038;-58
2021/10/16 04:22:15;;;;;;;6.07;3.70;;;;;;;;;;5114729;28;20015;-58
2021/10/16 04:24:41;;;;;;;7.03;3.90;;;;;;;;;;5112867;28;20795;-59
2021/10/16 04:27:08;;;;;;;7.63;4.40;;;;;;;;;;5111173;28;20039;-58
2021/10/16 04:29:35;;;;;;;5.63;3.60;;;;;;;;;;5110961;28;20024;-58
2021/10/16 04:32:02;;;;;;;7.33;3.57;;;;;;;;;;5110472;28;20055;-59
2021/10/16 04:34:28;;;;;;;7.03;4.13;;;;;;;;;;5102993;28;20023;-58
2021/10/16 04:36:55;;;;;;;8.70;5.13;;;;;;;;;;5115450;28;20500;-58
2021/10/16 04:39:22;;;;;;;8.30;5.30;;;;;;;;;;5115319;28;20020;-59
2021/10/16 04:41:49;;;;;;;8.43;4.53;;;;;;;;;;5115418;28;20019;-59
2021/10/16 04:44:16;;;;;;;8.57;4.43;;;;;;;;;;5115634;28;20030;-58
2021/10/16 04:46:43;;;;;;;6.30;3.80;;;;;;;;;;5113185;28;20066;-59
2021/10/16 04:49:10;;;;;;;8.50;3.70;;;;;;;;;;5110299;28;20027;-58
2021/10/16 04:51:36;;;;;;;8.73;3.97;;;;;;;;;;5110100;28;20027;-58
2021/10/16 04:54:03;;;;;;;6.23;4.10;;;;;;;;;;5110246;28;20023;-60
2021/10/16 04:56:30;;;;;;;8.30;4.00;;;;;;;;;;5112840;28;20027;-59
2021/10/16 04:58:57;;;;;;;7.80;4.50;;;;;;;;;;5115260;28;20474;-58
2021/10/16 05:01:24;;;;;;;7.20;3.97;;;;;;;;;;5115435;28;20536;-58
2021/10/16 05:03:51;;;;;;;6.37;3.90;;;;;;;;;;5115012;28;20066;-58
2021/10/16 05:06:20;;;;;;;5.43;3.53;;;;;;;;;;5115557;28;20020;-58
2021/10/16 05:08:47;;;;;;;6.37;4.67;;;;;;;;;;5112993;28;20123;-59
2021/10/16 05:11:13;;;;;;;7.57;5.10;;;;;;;;;;5110085;28;20049;-58
2021/10/16 05:13:40;;;;;;;6.03;4.17;;;;;;;;;;5109405;28;20032;-58
2021/10/16 05:16:07;;;;;;;7.03;3.93;;;;;;;;;;5110295;28;20117;-58
2021/10/16 05:18:34;;;;;;;7.67;5.27;;;;;;;;;;5111621;28;20019;-58
2021/10/16 05:21:00;;;;;;;6.83;4.40;;;;;;;;;;5114934;28;20038;-58
2021/10/16 05:23:27;;;;;;;10.13;4.50;;;;;;;;;;5115182;28;20024;-58
2021/10/16 05:26:03;;;;;;;6.87;4.60;;;;;;;;;;5115035;28;20493;-58
2021/10/16 05:28:30;;;;;;;14.07;6.17;;;;;;;;;;5096678;28;20119;-59
2021/10/16 05:30:57;;;;;;;8.43;4.90;;;;;;;;;;5112955;28;20024;-58
2021/10/16 05:33:23;;;;;;;7.97;5.27;;;;;;;;;;5108940;28;20103;-57
2021/10/16 05:35:50;;;;;;;11.03;5.00;;;;;;;;;;5109331;28;20093;-58
2021/10/16 05:38:17;;;;;;;9.57;5.37;;;;;;;;;;5109809;28;20026;-58
2021/10/16 05:40:44;;;;;;;8.00;4.87;;;;;;;;;;5110921;28;20075;-58
2021/10/16 05:43:10;;;;;;;8.03;4.47;;;;;;;;;;5114467;28;20016;-57
2021/10/16 05:45:37;;;;;;;7.03;4.57;;;;;;;;;;5114694;28;20034;-58
2021/10/16 05:48:04;;;;;;;6.03;4.33;;;;;;;;;;5114711;28;20016;-58
2021/10/16 05:50:31;;;;;;;8.67;5.20;;;;;;;;;;5114723;28;20477;-58
2021/10/16 05:52:58;;;;;;;8.37;5.67;;;;;;;;;;5112604;28;20750;-58
2021/10/16 05:55:25;;;;;;;7.03;4.90;;;;;;;;;;5109378;28;20106;-58
2021/10/16 05:57:52;;;;;;;9.20;4.73;;;;;;;;;;5109111;28;20016;-58
2021/10/16 06:00:19;;;;;;;7.63;4.90;;;;;;;;;;5109063;28;21356;-58
2021/10/16 06:02:45;;;;;;;8.30;5.87;;;;;;;;;;5109524;28;20027;-58
2021/10/16 06:05:12;;;;;;;9.73;5.63;;;;;;;;;;5114545;28;20087;-58
2021/10/16 06:07:39;;;;;;;9.77;4.63;;;;;;;;;;5114150;28;20023;-58
2021/10/16 06:10:06;;;;;;;6.20;4.37;;;;;;;;;;5113977;28;20491;-58
2021/10/16 06:12:33;;;;;;;8.23;5.13;;;;;;;;;;5113857;28;20027;-60
2021/10/16 06:15:00;;;;;;;7.57;4.97;;;;;;;;;;5104810;28;20023;-58
2021/10/16 06:17:26;;;;;;;6.97;4.50;;;;;;;;;;5108805;28;20059;-58
2021/10/16 06:19:53;;;;;;;7.03;4.57;;;;;;;;;;5108689;28;20039;-58
2021/10/16 06:22:20;;;;;;;7.83;4.53;;;;;;;;;;5108744;28;20015;-58
2021/10/16 06:24:47;;;;;;;12.53;5.27;;;;;;;;;;5108526;28;20031;-58
2021/10/16 06:27:13;;;;;;;10.40;4.93;;;;;;;;;;5113780;28;20031;-58
2021/10/16 06:29:40;;;;;;;8.43;4.40;;;;;;;;;;5113724;28;20088;-59
2021/10/16 06:32:07;;;;;;;7.27;4.57;;;;;;;;;;5113847;28;20023;-59
2021/10/16 06:34:34;;;;;;;9.43;4.80;;;;;;;;;;5113679;28;20373;-58
2021/10/16 06:37:00;;;;;;;7.57;5.03;;;;;;;;;;5113482;28;20084;-58
2021/10/16 06:39:27;;;;;;;8.57;5.37;;;;;;;;;;5108310;28;20059;-59
2021/10/16 06:41:54;;;;;;;8.40;5.70;;;;;;;;;;5107936;28;20028;-58
2021/10/16 06:44:21;;;;;;;8.10;4.90;;;;;;;;;;5101230;28;20023;-58
2021/10/16 06:46:47;;;;;;;8.43;5.23;;;;;;;;;;5108434;28;20143;-58
2021/10/16 06:49:14;;;;;;;7.87;5.23;;;;;;;;;;5113481;28;20070;-58
2021/10/16 06:51:42;;;;;;;8.17;5.13;;;;;;;;;;5113691;28;20099;-58
2021/10/16 06:54:10;;;;;;;8.00;5.50;;;;;;;;;;5113195;28;20027;-58
2021/10/16 06:56:37;;;;;;;8.70;5.20;;;;;;;;;;5113421;28;20072;-58
2021/10/16 06:59:04;;;;;;;8.53;5.30;;;;;;;;;;5112891;28;20032;-58
2021/10/16 07:01:31;;;;;;;8.27;5.40;;;;;;;;;;5107928;28;20044;-59
2021/10/16 07:03:57;;;;;;;10.97;5.63;;;;;;;;;;5108124;28;20596;-58
2021/10/16 07:06:24;;;;;;;7.47;4.67;;;;;;;;;;5107620;28;20383;-59
2021/10/16 07:08:51;;;;;;;8.50;5.40;;;;;;;;;;5107326;28;20135;-58
2021/10/16 07:11:18;;;;;;;11.13;6.13;;;;;;;;;;5112218;28;20019;-57
2021/10/16 07:13:44;;;;;;;8.10;5.33;;;;;;;;;;5112394;28;20032;-58
2021/10/16 07:16:11;;;;;;;8.87;5.63;;;;;;;;;;5113173;28;20498;-58
2021/10/16 07:18:38;;;;;;;7.17;4.70;;;;;;;;;;5113075;28;20036;-58
2021/10/16 07:21:05;;;;;;;13.67;4.67;;;;;;;;;;5112946;28;20054;-58
2021/10/16 07:23:32;;;;;;;7.70;5.47;;;;;;;;;;5108201;28;20027;-58
2021/10/16 07:26:00;;;;;;;10.60;6.10;;;;;;;;;;5107155;28;20027;-57
2021/10/16 07:28:26;;;;;;;7.50;5.00;;;;;;;;;;5107552;28;20794;-58
2021/10/16 07:30:53;;;;;;;7.90;5.33;;;;;;;;;;5106675;28;20035;-57
2021/10/16 07:33:20;;;;;;;7.93;5.20;;;;;;;;;;5110866;28;20072;-58
2021/10/16 07:35:47;;;;;;;7.57;5.13;;;;;;;;;;5112064;28;20031;-58
2021/10/16 07:38:14;;;;;;;8.03;5.07;;;;;;;;;;5111686;28;20032;-58
2021/10/16 07:40:41;;;;;;;8.70;5.87;;;;;;;;;;5111845;28;20028;-57
2021/10/16 07:43:08;;;;;;;9.27;6.10;;;;;;;;;;5111073;28;20035;-57
2021/10/16 07:45:36;;;;;;;8.87;5.47;;;;;;;;;;5107292;28;20038;-59
2021/10/16 07:48:02;;;;;;;8.70;5.80;;;;;;;;;;5106120;28;20035;-58
2021/10/16 07:50:29;;;;;;;10.30;6.80;;;;;;;;;;5106522;28;20885;-58
2021/10/16 07:52:56;;;;;;;8.80;5.83;;;;;;;;;;5106711;28;20058;-57
2021/10/16 07:55:23;;;;;;;10.70;5.73;;;;;;;;;;5109969;28;20382;-58
2021/10/16 07:57:49;;;;;;;9.00;5.83;;;;;;;;;;5112576;28;20513;-58
2021/10/16 08:00:16;;;;;;;9.63;6.00;;;;;;;;;;5112420;28;20066;-57
2021/10/16 08:02:43;;;;;;;10.30;6.90;;;;;;;;;;5112348;28;20020;-57
2021/10/16 08:05:14;;;;;;;10.17;6.70;;;;;;;;;;5112421;28;20355;-57
2021/10/16 08:07:42;;;;;;;9.93;6.77;;;;;;;;;;5108461;28;20039;-57
2021/10/16 08:10:09;;;;;;;8.03;5.60;;;;;;;;;;5106665;28;20032;-58
2021/10/16 08:12:36;;;;;;;7.53;5.30;;;;;;;;;;5106733;28;20505;-58
2021/10/16 08:15:04;;;;;;;13.07;7.60;;;;;;;;;;5106480;28;20035;-57
2021/10/16 08:17:31;;;;;;;10.80;7.43;;;;;;;;;;5109698;28;20024;-58
2021/10/16 08:19:58;;;;;;;9.80;6.73;;;;;;;;;;5112432;28;20152;-58
2021/10/16 08:22:25;;;;;;;13.23;6.23;;;;;;;;;;5112334;28;20028;-58
2021/10/16 08:24:51;;;;;;;20.33;8.17;;;;;;;;;;5112114;28;20561;-58
2021/10/16 08:27:18;;;;;;;10.97;6.80;;;;;;;;;;5112413;28;20016;-58
2021/10/16 08:29:45;;;;;;;17.20;7.93;;;;;;;;;;5108917;28;20024;-57
2021/10/16 08:32:12;;;;;;;9.17;5.83;;;;;;;;;;5106828;28;20055;-58
2021/10/16 08:34:38;;;;;;;9.13;6.07;;;;;;;;;;5105875;28;20102;-58
2021/10/16 08:37:05;;;;;;;9.23;6.40;;;;;;;;;;5107198;28;20024;-58
2021/10/16 08:39:32;;;;;;;9.80;5.43;;;;;;;;;;5109164;28;20068;-58
2021/10/16 08:41:59;;;;;;;9.17;5.63;;;;;;;;;;5111868;28;20030;-59
2021/10/16 08:44:26;;;;;;;9.37;5.87;;;;;;;;;;5111709;28;20024;-57
2021/10/16 08:46:59;;;;;;;12.40;5.87;;;;;;;;;;5112009;28;20042;-58
2021/10/16 08:49:31;;;;;;;11.43;6.50;;;;;;;;;;5110488;28;20028;-58
2021/10/16 08:51:58;;;;;;;17.07;9.10;;;;;;;;;;5108497;28;20042;-57
2021/10/16 08:54:25;;;;;;;10.53;7.50;;;;;;;;;;5106234;28;20031;-57
2021/10/16 08:56:52;;;;;;;12.67;7.60;;;;;;;;;;5106699;28;20122;-58
2021/10/16 08:59:18;;;;;;;10.50;6.30;;;;;;;;;;5106353;28;20023;-57
2021/10/16 09:01:59;;;;;;;9.27;5.90;;;;;;;;;;5109083;28;20070;-57
2021/10/16 09:04:26;;;;;;;9.97;6.43;;;;;;;;;;5111810;28;20045;-58
2021/10/16 09:06:53;;;;;;;11.00;7.40;;;;;;;;;;5111892;28;20260;-57
2021/10/16 09:09:24;;;;;;;13.27;7.90;;;;;;;;;;5115524;28;20074;-57
2021/10/16 09:11:54;;;;;;;10.10;6.57;;;;;;;;;;5115758;28;20470;-57
2021/10/16 09:14:25;;;;;;;11.67;7.50;;;;;;;;;;5111298;28;20114;-58
2021/10/16 09:16:56;;;;;;;13.70;8.00;;;;;;;;;;5110172;28;20084;-57
2021/10/16 09:19:24;;;;;;;11.83;6.63;;;;;;;;;;5109574;28;20043;-58
2021/10/16 09:21:56;;;;;;;11.23;6.93;;;;;;;;;;5109733;28;20357;-58
2021/10/16 09:24:33;;;;;;;9.83;7.27;;;;;;;;;;5112722;28;20477;-57
2021/10/16 09:27:02;;;;;;;10.83;7.63;;;;;;;;;;5114650;28;20066;-57
2021/10/16 09:29:30;;;;;;;9.87;6.87;;;;;;;;;;5115198;28;20110;-59
2021/10/16 09:31:58;;;;;;;12.57;8.33;;;;;;;;;;5110764;28;20054;-57
2021/10/16 09:34:26;;;;;;;13.87;9.40;;;;;;;;;;5114790;28;20035;-57
2021/10/16 09:37:01;;;;;;;15.67;10.57;;;;;;;;;;5110612;28;20023;-57
2021/10/16 09:39:28;;;;;;;11.48;8.60;;;;;;;;;;5109336;28;20039;-57
2021/10/16 09:41:55;;;;;;;11.97;8.77;;;;;;;;;;5109533;28;20036;-58
2021/10/16 09:44:23;;;;;;;10.70;8.10;;;;;;;;;;5109205;28;20575;-57
2021/10/16 09:47:16;;;;;;;13.80;8.40;;;;;;;;;;5113428;28;20306;-57
2021/10/16 09:49:58;;;;;;;12.37;7.50;;;;;;;;;;5110479;28;20390;-57
2021/10/16 09:52:33;;;;;;;12.83;8.97;;;;;;;;;;5114569;28;20028;-58
2021/10/16 09:55:00;;;;;;;15.90;10.00;;;;;;;;;;5107621;28;20419;-57
2021/10/16 09:57:27;;;;;;;14.30;9.63;;;;;;;;;;5114460;28;20032;-58
2021/10/16 09:59:54;;;;;;;16.50;11.10;;;;;;;;;;5108665;28;20436;-58
2021/10/16 10:02:21;;;;;;;13.37;9.60;;;;;;;;;;5109222;28;20081;-57
2021/10/16 10:04:48;;;;;;;11.20;8.27;;;;;;;;;;5109191;28;20027;-57
2021/10/16 10:07:17;;;;;;;12.23;8.27;;;;;;;;;;5109080;28;20027;-58
2021/10/16 10:09:45;;;;;;;12.10;8.27;;;;;;;;;;5114028;28;20149;-57
2021/10/16 10:12:13;;;;;;;11.20;8.20;;;;;;;;;;5113699;28;20466;-57
2021/10/16 10:14:41;;;;;;;12.17;7.60;;;;;;;;;;5114110;28;20071;-57
2021/10/16 10:17:08;;;;;;;11.90;8.27;;;;;;;;;;5113537;28;20031;-58
2021/10/16 10:19:39;;;;;;;11.13;7.13;;;;;;;;;;5113972;28;20309;-57
2021/10/16 10:22:13;;;;;;;11.67;7.47;;;;;;;;;;5108552;28;20252;-57
2021/10/16 10:24:50;;;;;;;16.13;9.13;;;;;;;;;;5108271;28;20264;-57
2021/10/16 10:27:17;;;;;;;14.30;9.13;;;;;;;;;;5108470;28;20325;-58
2021/10/16 10:29:47;;;;;;;12.00;8.27;;;;;;;;;;5108700;28;20382;-58
2021/10/16 10:32:14;;;;;;;17.90;11.67;;;;;;;;;;5113609;28;20026;-57
2021/10/16 10:34:42;;;;;;;18.63;12.67;;;;;;;;;;5113709;28;20264;-57
2021/10/16 10:37:13;;;;;;;17.13;11.97;;;;;;;;;;5113962;28;20592;-58
2021/10/16 10:39:43;;;;;;;17.67;11.60;;;;;;;;;;5113478;28;20351;-57
2021/10/16 10:42:12;;;;;;;18.13;12.30;;;;;;;;;;5112158;28;20793;-57
2021/10/16 10:44:47;;;;;;;19.37;11.97;;;;;;;;;;5108017;28;20649;-58
2021/10/16 10:47:23;;;;;;;17.83;11.50;;;;;;;;;;5108392;28;20346;-58
2021/10/16 10:49:51;;;;;;;16.50;11.47;;;;;;;;;;5108212;28;20603;-57
2021/10/16 10:52:19;;;;;;;50.33;33.57;;;;;;;;;;5108347;28;20055;-58
2021/10/16 10:55:01;;;;;;;24.70;15.60;;;;;;;;;;5113249;28;20272;-57
2021/10/16 10:57:48;;;;;;;21.40;14.77;;;;;;;;;;5113625;28;20264;-57
2021/10/16 11:00:15;;;;;;;13.50;9.80;;;;;;;;;;5112932;28;20288;-57
2021/10/16 11:02:42;;;;;;;12.57;8.90;;;;;;;;;;5113246;28;20341;-57
2021/10/16 11:05:34;;;;;;;12.67;8.87;;;;;;;;;;5110305;28;20321;-57
2021/10/16 11:08:07;;;;;;;15.83;10.50;;;;;;;;;;5108151;28;20295;-57
2021/10/16 11:10:34;;;;;;;13.17;9.37;;;;;;;;;;5107349;28;20641;-57
2021/10/16 11:13:21;;;;;;;12.27;8.47;;;;;;;;;;5107437;28;20031;-57
2021/10/16 11:16:00;;;;;;;12.77;8.87;;;;;;;;;;5111370;28;20299;-57
2021/10/16 11:18:27;;;;;;;14.27;9.27;;;;;;;;;;5112626;28;20256;-57
2021/10/16 11:21:23;;;;;;;12.53;8.40;;;;;;;;;;5112780;28;20296;-57
2021/10/16 11:23:49;;;;;;;14.30;9.45;;;;;;;;;;5091170;28;20614;-57
2021/10/16 11:26:16;;;;;;;20.60;14.30;;;;;;;;;;5112409;28;20419;-57
2021/10/16 11:28:43;;;;;;;23.37;15.87;;;;;;;;;;5107230;28;20331;-57
2021/10/16 11:31:10;;;;;;;18.23;12.20;;;;;;;;;;5107001;28;20283;-57
2021/10/16 11:33:40;;;;;;;23.23;15.40;;;;;;;;;;5107216;28;20309;-58
2021/10/16 11:36:08;;;;;;;18.80;13.13;;;;;;;;;;5106887;28;20275;-57
2021/10/16 11:38:37;;;;;;;17.13;11.63;;;;;;;;;;5112404;28;20256;-57
2021/10/16 11:41:05;;;;;;;20.70;12.60;;;;;;;;;;5112353;28;20288;-57
2021/10/16 11:43:34;;;;;;;17.97;12.93;;;;;;;;;;5112048;28;20256;-57
2021/10/16 11:46:01;;;;;;;21.17;13.53;;;;;;;;;;5112174;28;20264;-57
2021/10/16 11:48:28;;;;;;;16.40;11.00;;;;;;;;;;5112564;28;20733;-57
2021/10/16 11:50:56;;;;;;;15.50;10.73;;;;;;;;;;5107086;28;20754;-57
2021/10/16 11:53:30;;;;;;;15.13;11.07;;;;;;;;;;5107008;28;20272;-57
2021/10/16 11:55:56;;;;;;;17.57;11.43;;;;;;;;;;5106280;28;20256;-57
2021/10/16 11:58:24;;;;;;;18.20;12.63;;;;;;;;;;5107049;28;20613;-57
2021/10/16 12:00:52;;;;;;;20.33;13.27;;;;;;;;;;5112046;28;20340;-57
2021/10/16 12:03:20;;;;;;;18.77;12.90;;;;;;;;;;5112601;28;20268;-57
2021/10/16 12:05:53;;;;;;;16.60;11.77;;;;;;;;;;5111730;28;20267;-57
2021/10/16 12:08:24;;;;;;;15.67;10.33;;;;;;;;;;5112348;28;20638;-58
2021/10/16 12:10:55;;;;;;;16.47;10.50;;;;;;;;;;5112186;28;20262;-57
2021/10/16 12:13:38;;;;;;;16.93;11.27;;;;;;;;;;5101665;28;20279;-58
2021/10/16 12:16:13;;;;;;;15.37;9.50;;;;;;;;;;5106650;28;20298;-57
2021/10/16 12:18:50;;;;;;;16.17;10.83;;;;;;;;;;5106360;28;20264;-57
2021/10/16 12:21:33;;;;;;;17.93;11.47;;;;;;;;;;5090553;28;20312;-57
2021/10/16 12:24:01;;;;;;;21.27;11.87;;;;;;;;;;5111854;28;20259;-57
2021/10/16 12:26:32;;;;;;;18.10;11.50;;;;;;;;;;5111589;28;20295;-56
2021/10/16 12:29:00;;;;;;;17.90;10.90;;;;;;;;;;5111740;28;20314;-57
2021/10/16 12:31:27;;;;;;;18.53;12.43;;;;;;;;;;5111581;28;20263;-57
2021/10/16 12:34:05;;;;;;;27.83;15.53;;;;;;;;;;5109197;28;20272;-58
2021/10/16 12:36:33;;;;;;;17.03;11.73;;;;;;;;;;5106007;28;20815;-57
2021/10/16 12:39:01;;;;;;;20.83;13.37;;;;;;;;;;5106756;28;20591;-57
2021/10/16 12:41:36;;;;;;;19.30;11.63;;;;;;;;;;5106529;28;20391;-57
2021/10/16 12:44:20;;;;;;;19.25;11.10;;;;;;;;;;5107031;28;20290;-57
2021/10/16 12:46:48;;;;;;;19.07;9.83;;;;;;;;;;5115942;28;20114;-57
2021/10/16 12:49:29;;;;;;;21.70;11.67;;;;;;;;;;5115585;28;20303;-57
2021/10/16 12:51:58;;;;;;;26.50;11.93;;;;;;;;;;5115597;28;20279;-57
2021/10/16 12:54:37;;;;;;;22.80;13.67;;;;;;;;;;5115664;28;20276;-56
2021/10/16 12:57:06;;;;;;;20.63;12.83;;;;;;;;;;5110952;28;20321;-57
2021/10/16 12:59:33;;;;;;;18.40;11.43;;;;;;;;;;5109623;28;20271;-57
2021/10/16 13:02:00;;;;;;;28.40;13.60;;;;;;;;;;5109850;28;20279;-56
2021/10/16 13:04:27;;;;;;;21.27;13.37;;;;;;;;;;5110423;28;20274;-57
2021/10/16 13:06:53;;;;;;;16.80;12.03;;;;;;;;;;5113825;28;20264;-57
2021/10/16 13:09:21;;;;;;;23.23;13.33;;;;;;;;;;5115651;28;20275;-56
2021/10/16 13:11:47;;;;;;;22.63;14.20;;;;;;;;;;5115656;28;20268;-57
2021/10/16 13:14:14;;;;;;;20.33;14.13;;;;;;;;;;5115175;28;20614;-57
2021/10/16 13:16:41;;;;;;;24.80;16.30;;;;;;;;;;5114764;28;20256;-57
2021/10/16 13:19:08;;;;;;;21.37;14.60;;;;;;;;;;5111228;28;20256;-57
2021/10/16 13:21:35;;;;;;;18.23;13.23;;;;;;;;;;5110032;28;20280;-57
2021/10/16 13:24:01;;;;;;;22.13;12.63;;;;;;;;;;5110071;28;20784;-57
2021/10/16 13:26:28;;;;;;;22.77;14.13;;;;;;;;;;5109822;28;20478;-57
2021/10/16 13:28:55;;;;;;;23.33;14.03;;;;;;;;;;5113116;28;20478;-57
2021/10/16 13:31:22;;;;;;;18.67;13.10;;;;;;;;;;5114618;28;20068;-57
2021/10/16 13:33:48;;;;;;;18.53;13.40;;;;;;;;;;5115309;28;20028;-57
2021/10/16 13:36:15;;;;;;;17.87;12.97;;;;;;;;;;5114352;28;20028;-57
2021/10/16 13:38:42;;;;;;;22.37;12.23;;;;;;;;;;5114862;28;20039;-57
2021/10/16 13:41:09;;;;;;;27.17;14.53;;;;;;;;;;5111123;28;20027;-58
2021/10/16 13:43:35;;;;;;;18.20;13.10;;;;;;;;;;5109128;28;20034;-57
2021/10/16 13:46:02;;;;;;;18.17;12.87;;;;;;;;;;5109174;28;20036;-58
2021/10/16 13:48:29;;;;;;;15.13;11.43;;;;;;;;;;5101376;28;20123;-58
2021/10/16 13:50:56;;;;;;;14.50;10.73;;;;;;;;;;5112018;28;20046;-58
2021/10/16 13:53:23;;;;;;;17.63;12.10;;;;;;;;;;5114185;28;20019;-57
2021/10/16 13:55:50;;;;;;;19.10;13.90;;;;;;;;;;5114733;28;20020;-57
2021/10/16 13:58:16;;;;;;;19.30;13.20;;;;;;;;;;5114698;28;20106;-58
2021/10/16 14:00:43;;;;;;;16.23;11.40;;;;;;;;;;5114783;28;20077;-57
2021/10/16 14:03:10;;;;;;;16.17;12.23;;;;;;;;;;5111020;28;20059;-57
2021/10/16 14:05:37;;;;;;;15.63;10.37;;;;;;;;;;5080382;28;22178;-58
2021/10/16 14:08:04;;;;;;;12.77;8.73;;;;;;;;;;5109148;28;20530;-58
2021/10/16 14:10:30;;;;;;;13.47;9.87;;;;;;;;;;5109035;28;20036;-57
2021/10/16 14:12:57;;;;;;;16.00;9.97;;;;;;;;;;5111482;28;20020;-57
2021/10/16 14:15:24;;;;;;;14.57;8.50;;;;;;;;;;5113779;28;20123;-58
2021/10/16 14:17:51;;;;;;;11.47;7.67;;;;;;;;;;5114611;28;20019;-58
2021/10/16 14:20:17;;;;;;;10.77;9.07;;;;;;;;;;5113894;28;20045;-58
2021/10/16 14:22:44;;;;;;;11.33;8.33;;;;;;;;;;5114499;28;20039;-58
2021/10/16 14:25:11;;;;;;;11.17;7.70;;;;;;;;;;5111140;28;20080;-58
2021/10/16 14:27:38;;;;;;;10.23;8.03;;;;;;;;;;5108460;28;20466;-58
2021/10/16 14:30:06;;;;;;;11.97;7.67;;;;;;;;;;5108350;28;20028;-58
2021/10/16 14:32:33;;;;;;;9.20;7.73;;;;;;;;;;5108353;28;20125;-58
2021/10/16 14:35:00;;;;;;;11.77;8.40;;;;;;;;;;5109811;28;20098;-58
2021/10/16 14:37:26;;;;;;;12.97;8.10;;;;;;;;;;5114063;28;20028;-57
2021/10/16 14:39:53;;;;;;;8.93;6.57;;;;;;;;;;5113704;28;20096;-58